Latest Weather Observations for Robe Airport

IDS60801

Issued at 11:51 pm CST Sunday 15 September 2019 (issued every 10 minutes, with the page automatically refreshed every 10 minutes)

About weather observations | Map of weather stations | Latest weather observations for SA | Other Formats
Station Details ID: 026105 Name: ROBE AIRFIELD Lat: -37.18 Lon: 139.81 Height: 3.0 m
Data from the previous 72 hours. | See also: Recent months at Robe Airport
Date/Time
CST
Temp
°C
App
Temp
°C
Dew
Point
°C
Rel
Hum
%
Delta-T
°C
Wind Press
QNH
hPa
Press
MSL
hPa
Rain since
9am
mm
Dir  Spd
km/h
Gust
km/h
Spd
kts
Gust
kts
15/11:30pm 11.1 6.5 6.6 74 2.1 SSW 20 28 11 15 1018.5 1018.5 0.6
15/11:00pm 11.3 7.0 8.0 80 1.6 SSW 20 28 11 15 1019.3 1019.3 0.6
15/10:30pm 11.0 7.0 8.2 83 1.4 SSW 19 24 10 13 1018.6 1018.6 0.6
15/10:00pm 10.7 8.5 9.3 91 0.7 SSW 11 20 6 11 1018.6 1018.6 0.6
15/09:30pm 10.3 6.2 6.3 76 1.9 S 17 24 9 13 1018.3 1018.3 0.4
15/09:00pm 12.5 7.8 7.8 73 2.3 SSW 22 33 12 18 1019.1 1019.1 0.0
15/08:30pm 12.4 7.5 5.3 62 3.3 SW 20 28 11 15 1019.1 1019.1 0.0
15/08:00pm 12.3 8.5 9.9 85 1.2 SSW 20 30 11 16 1018.4 1018.4 0.0
15/07:30pm 12.3 7.8 10.2 87 1.1 SSW 24 33 13 18 1017.9 1017.9 0.0
15/07:00pm 12.7 8.4 12.1 96 0.3 SSW 26 37 14 20 1017.6 1017.6 0.0
15/06:30pm 13.7 10.8 12.3 91 0.8 SW 19 30 10 16 1017.3 1017.3 0.0
15/06:00pm 15.1 12.4 13.0 87 1.2 WSW 19 32 10 17 1016.9 1016.9 0.0
15/05:30pm 15.8 14.1 12.5 81 1.8 W 13 22 7 12 1016.4 1016.4 0.0
15/05:00pm 16.2 15.4 12.9 81 1.8 NW 9 13 5 7 1016.1 1016.1 0.0
15/04:30pm 17.8 17.8 14.1 79 2.1 N 7 13 4 7 1015.3 1015.3 0.0
15/04:00pm 16.7 17.8 13.4 81 1.9 CALM 0 0 0 0 1014.4 1014.4 0.0
15/03:30pm 16.3 16.5 13.0 81 1.8 WSW 4 7 2 4 1016.2 1016.2 0.0
15/03:00pm 16.4 13.8 13.1 81 1.8 W 19 35 10 19 1017.6 1017.6 0.0
15/02:30pm 16.4 16.0 12.9 80 1.9 WSW 7 13 4 7 1015.6 1015.6 0.0
15/02:00pm 17.5 16.4 13.0 75 2.5 SW 11 15 6 8 1015.2 1015.2 0.0
15/01:30pm 18.6 18.4 13.0 70 3.1 W 6 13 3 7 1015.1 1015.1 0.0
15/01:00pm 17.9 16.5 13.4 75 2.5 NNW 13 17 7 9 1015.5 1015.5 0.0
15/12:30pm 18.7 17.4 13.6 72 2.9 WNW 13 20 7 11 1016.5 1016.5 0.0
15/12:00pm 18.4 17.2 14.1 76 2.5 WNW 13 20 7 11 1016.2 1016.2 0.0
15/11:30am 16.6 14.3 14.1 85 1.4 NW 19 24 10 13 1016.9 1016.9 0.0
15/11:00am 17.3 16.3 14.6 84 1.6 NW 13 17 7 9 1016.6 1016.6 0.0
15/10:30am 18.1 17.2 13.6 75 2.6 NNW 11 19 6 10 1016.5 1016.5 0.0
15/10:00am 18.2 18.8 14.3 78 2.2 NNW 4 7 2 4 1016.4 1016.4 0.0
15/09:30am 17.9 18.4 14.0 78 2.2 NNE 4 6 2 3 1016.5 1016.5 0.0
15/09:00am 15.8 15.9 13.8 88 1.1 NW 6 9 3 5 1017.6 1017.6 0.4
15/08:30am 16.1 16.3 14.6 91 0.9 S 7 11 4 6 1016.8 1016.8 0.4
15/08:00am 16.1 16.3 14.3 89 1.0 SW 6 9 3 5 1016.6 1016.6 0.2
15/07:30am 15.3 15.6 13.3 88 1.1 WSW 4 7 2 4 1016.9 1016.9 0.2
15/07:00am 15.0 14.1 12.7 86 1.3 WNW 9 13 5 7 1016.9 1016.9 0.2
15/06:30am 15.2 13.8 12.2 82 1.6 W 11 19 6 10 1016.5 1016.5 0.2
15/06:00am 14.5 13.7 11.7 83 1.5 NNW 7 11 4 6 1015.6 1015.6 0.2
15/05:30am 13.4 13.2 11.8 90 0.9 N 4 6 2 3 1015.4 1015.4 0.2
15/05:00am 13.7 13.5 11.8 88 1.0 NNE 4 9 2 5 1015.3 1015.3 0.2
15/04:30am 14.5 14.2 12.7 89 1.0 NNE 6 9 3 5 1015.6 1015.6 0.2
15/04:00am 15.2 14.3 12.7 85 1.4 WSW 9 19 5 10 1016.8 1016.8 0.2
15/03:30am 15.1 14.1 12.2 83 1.6 NW 9 11 5 6 1016.6 1016.6 0.2
15/03:00am 16.3 15.8 12.5 78 2.1 W 7 11 4 6 1017.1 1017.1 0.2
15/02:30am 16.1 15.3 12.8 81 1.8 NNW 9 15 5 8 1016.7 1016.7 0.2
15/02:00am 16.0 14.4 12.7 81 1.8 N 13 17 7 9 1016.8 1016.8 0.2
15/01:30am 15.7 13.9 13.2 85 1.4 N 15 20 8 11 1017.1 1017.1 0.2
15/01:00am 15.4 13.6 13.4 88 1.1 N 15 19 8 10 1017.2 1017.2 0.2
15/12:30am 14.8 14.3 13.8 94 0.6 N 9 11 5 6 1018.8 1018.8 0.2
15/12:00am 15.7 15.7 13.7 88 1.1 NW 6 9 3 5 1019.8 1019.8 0.2
 
Date/Time
CST
Temp
°C
App
Temp
°C
Dew
Point
°C
Rel
Hum
%
Delta-T
°C
Wind Press
QNH
hPa
Press
MSL
hPa
Rain since
9am
mm
Dir  Spd
km/h
Gust
km/h
Spd
kts
Gust
kts
14/11:30pm 15.8 15.4 14.0 89 1.0 WNW 9 11 5 6 1020.3 1020.3 0.0
14/11:00pm 14.9 14.6 12.8 87 1.2 NW 6 7 3 4 1019.5 1019.5 0.0
14/10:30pm 16.5 16.2 13.2 81 1.8 NW 7 11 4 6 1020.1 1020.1 0.0
14/10:00pm 17.1 16.7 13.0 77 2.3 NNW 7 13 4 7 1019.9 1019.9 0.0
14/09:30pm 17.3 15.7 12.8 75 2.5 N 13 19 7 10 1019.8 1019.8 0.0
14/09:00pm 17.5 14.8 13.0 75 2.5 N 19 24 10 13 1020.2 1020.2 0.0
14/08:30pm 17.4 14.8 13.1 76 2.4 N 19 24 10 13 1020.4 1020.4 0.0
14/08:00pm 16.3 15.3 13.4 83 1.6 NNW 11 17 6 9 1020.9 1020.9 0.0
14/07:30pm 16.0 14.4 12.9 82 1.7 N 13 17 7 9 1021.2 1021.2 0.0
14/07:00pm 15.9 14.6 12.6 81 1.8 NNW 11 17 6 9 1021.6 1021.6 0.0
14/06:30pm 16.2 14.5 12.6 79 2.0 N 13 19 7 10 1021.6 1021.6 0.0
14/06:00pm 15.9 13.8 12.5 80 1.9 N 15 19 8 10 1021.4 1021.4 0.0
14/05:30pm 15.7 14.0 12.3 80 1.9 NNW 13 17 7 9 1021.9 1021.9 0.0
14/05:00pm 17.2 15.7 13.1 77 2.3 NNW 13 20 7 11 1022.0 1022.0 0.0
14/04:30pm 15.2 13.6 12.9 86 1.3 N 13 17 7 9 1021.9 1021.9 0.0
14/04:00pm 15.5 13.8 12.3 81 1.7 NW 13 19 7 10 1022.9 1022.9 0.0
14/03:30pm 15.8 13.6 12.0 78 2.1 NW 15 20 8 11 1022.8 1022.8 0.0
14/03:00pm 16.9 14.9 12.6 76 2.4 NW 15 20 8 11 1022.6 1022.6 0.0
14/02:30pm 16.4 13.9 12.4 77 2.2 NW 17 24 9 13 1022.9 1022.9 0.0
14/02:00pm 17.5 14.9 12.0 70 3.0 NW 17 22 9 12 1023.3 1023.3 0.0
14/01:30pm 17.6 13.5 8.5 55 4.7 NNW 20 28 11 15 1023.6 1023.6 0.0
14/01:00pm 17.0 12.6 8.9 59 4.2 NNW 22 28 12 15 1023.7 1023.7 0.0
14/12:30pm 16.6 13.0 9.8 64 3.5 NNW 19 28 10 15 1024.0 1024.0 0.0
14/12:00pm 16.5 12.5 10.6 68 3.1 N 22 30 12 16 1024.3 1024.3 0.0
14/11:30am 14.5 10.4 11.3 81 1.7 NNW 24 32 13 17 1025.5 1025.5 0.0
14/11:00am 15.1 11.8 11.5 79 1.9 NW 20 30 11 16 1025.9 1025.9 0.0
14/10:30am 14.8 11.2 10.4 75 2.3 NNW 20 26 11 14 1025.5 1025.5 0.0
14/10:00am 14.9 12.4 10.9 77 2.1 N 15 22 8 12 1025.6 1025.6 0.0
14/09:30am 13.9 10.7 10.1 78 2.0 N 17 24 9 13 1025.9 1025.9 0.0
14/09:00am 13.0 9.7 9.4 79 1.8 N 17 22 9 12 1026.4 1026.4 0.0
14/08:30am 12.4 9.4 9.1 80 1.6 N 15 19 8 10 1027.0 1027.0 0.0
14/08:00am 11.5 9.4 9.8 89 0.9 N 11 13 6 7 1026.8 1026.8 0.0
14/07:30am 9.1 7.2 9.1 100 0.0 NNE 9 11 5 6 1026.8 1026.8 0.0
14/07:00am 6.1 5.2 6.1 100 0.0 CALM 0 0 0 0 1027.1 1027.1 0.0
14/06:30am 3.3 1.8 2.9 97 0.2 CALM 0 0 0 0 1027.0 1027.0 0.0
14/06:00am 5.5 4.4 5.2 98 0.1 CALM 0 0 0 0 1026.8 1026.8 0.0
14/05:30am 6.3 5.4 6.0 98 0.1 CALM 0 0 0 0 1027.0 1027.0 0.0
14/05:00am 6.3 5.4 6.0 98 0.1 CALM 0 0 0 0 1026.9 1026.9 0.0
14/04:30am 6.8 5.7 6.7 99 0.0 NNE 2 4 1 2 1026.3 1026.3 0.0
14/04:00am 6.1 5.2 6.0 99 0.0 CALM 0 0 0 0 1026.5 1026.5 0.0
14/03:30am 4.3 3.0 4.0 98 0.1 CALM 0 0 0 0 1026.7 1026.7 0.0
14/03:00am 4.6 3.3 4.3 98 0.1 CALM 0 0 0 0 1026.7 1026.7 0.0
14/02:30am 4.8 3.6 4.5 98 0.1 CALM 0 0 0 0 1027.0 1027.0 0.0
14/02:00am 5.6 4.5 4.9 95 0.3 CALM 0 0 0 0 1027.0 1027.0 0.0
14/01:30am 7.6 6.7 6.2 91 0.6 CALM 0 0 0 0 1027.2 1027.2 0.0
14/01:00am 9.5 8.1 7.1 85 1.1 SSW 4 6 2 3 1027.4 1027.4 0.0
14/12:30am 10.6 9.0 8.0 84 1.3 SW 6 7 3 4 1027.6 1027.6 0.0
14/12:00am 10.9 9.1 8.1 83 1.4 WSW 7 11 4 6 1027.7 1027.7 0.0
 
Date/Time
CST
Temp
°C
App
Temp
°C
Dew
Point
°C
Rel
Hum
%
Delta-T
°C
Wind Press
QNH
hPa
Press
MSL
hPa
Rain since
9am
mm
Dir  Spd
km/h
Gust
km/h
Spd
kts
Gust
kts
13/11:30pm 11.6 9.5 8.1 79 1.7 SW 9 13 5 7 1027.5 1027.5 0.0
13/11:00pm 11.9 9.8 8.4 79 1.7 WSW 9 19 5 10 1027.7 1027.7 0.0
13/10:30pm 11.7 9.7 8.7 82 1.5 WSW 9 15 5 8 1027.7 1027.7 0.0
13/10:00pm 11.5 9.9 8.9 84 1.3 SW 7 9 4 5 1027.7 1027.7 0.0
13/09:30pm 11.9 10.1 9.3 84 1.3 SW 9 15 5 8 1027.6 1027.6 0.0
13/09:00pm 12.3 10.9 9.7 84 1.3 SW 7 15 4 8 1027.5 1027.5 0.0
13/08:30pm 12.3 10.9 9.7 84 1.3 WSW 7 13 4 7 1027.5 1027.5 0.0
13/08:00pm 12.5 10.5 10.0 85 1.3 WSW 11 19 6 10 1027.3 1027.3 0.0
13/07:30pm 12.6 11.5 10.8 89 0.9 WSW 7 17 4 9 1026.9 1026.9 0.0
13/07:00pm 12.7 11.3 10.8 88 1.0 W 9 17 5 9 1026.5 1026.5 0.0
13/06:30pm 13.0 11.7 11.2 89 0.9 W 9 15 5 8 1026.3 1026.3 0.0
13/06:00pm 13.4 11.5 11.8 90 0.9 WSW 13 22 7 12 1026.1 1026.1 0.0
13/05:30pm 13.9 12.5 12.1 89 1.0 W 11 22 6 12 1025.7 1025.7 0.0
13/05:00pm 14.2 11.2 11.9 86 1.2 W 19 28 10 15 1025.6 1025.6 0.0
13/04:30pm 14.4 12.1 11.7 84 1.4 W 15 26 8 14 1025.6 1025.6 0.0
13/04:00pm 14.4 11.8 11.9 85 1.3 W 17 28 9 15 1025.6 1025.6 0.0
13/03:30pm 14.8 11.3 12.1 84 1.5 W 22 32 12 17 1025.5 1025.5 0.0
13/03:00pm 15.3 12.3 12.4 83 1.6 WNW 20 33 11 18 1025.3 1025.3 0.0
13/02:30pm 14.5 10.3 12.4 87 1.1 WNW 26 35 14 19 1025.5 1025.5 0.0
13/02:00pm 14.6 10.7 12.1 85 1.4 NW 24 35 13 19 1025.4 1025.4 0.0
13/01:30pm 14.6 11.1 12.3 86 1.2 NW 22 32 12 17 1025.2 1025.2 0.0
13/01:00pm 14.5 10.1 11.8 84 1.5 NW 26 35 14 19 1025.4 1025.4 0.0
13/12:30pm 14.5 10.1 11.8 84 1.4 NW 26 35 14 19 1025.6 1025.6 0.0
13/12:00pm 14.5 10.9 11.8 84 1.4 NW 22 30 12 16 1026.0 1026.0 0.0
13/11:30am 13.9 10.6 11.6 86 1.2 NW 20 26 11 14 1025.9 1025.9 0.0
13/11:00am 13.2 9.7 10.9 86 1.2 NW 20 28 11 15 1026.1 1026.1 0.0
13/10:30am 13.1 9.7 10.6 85 1.3 NW 19 24 10 13 1025.9 1025.9 0.0
13/10:00am 13.3 9.8 10.1 81 1.7 NW 19 26 10 14 1026.2 1026.2 0.0
13/09:30am 13.1 9.9 9.9 81 1.6 WNW 17 26 9 14 1026.4 1026.4 0.0
13/09:00am 12.7 9.1 9.7 82 1.5 WNW 19 28 10 15 1026.4 1026.4 0.0
13/08:30am 12.6 9.2 9.1 79 1.7 W 17 26 9 14 1026.5 1026.5 0.0
13/08:00am 12.2 8.3 8.7 79 1.7 WNW 19 28 10 15 1026.4 1026.4 0.0
13/07:30am 11.9 8.8 8.7 81 1.6 WNW 15 24 8 13 1026.0 1026.0 0.0
13/07:00am 11.6 9.2 8.8 83 1.4 WNW 11 24 6 13 1025.6 1025.6 0.0
13/06:30am 11.2 8.8 8.8 85 1.2 WNW 11 19 6 10 1025.7 1025.7 0.0
13/06:00am 10.9 8.5 8.8 87 1.0 WNW 11 17 6 9 1025.4 1025.4 0.0
13/05:30am 10.1 8.1 8.5 90 0.8 WNW 9 15 5 8 1024.8 1024.8 0.0
13/05:00am 7.7 6.5 6.6 93 0.5 NNW 2 6 1 3 1024.2 1024.2 0.0
13/04:30am 6.8 4.8 6.1 95 0.3 WNW 6 7 3 4 1024.5 1024.5 0.0
13/04:00am 7.4 5.9 6.7 95 0.3 WNW 4 6 2 3 1024.4 1024.4 0.0
13/03:30am 7.9 6.4 6.8 93 0.5 WNW 4 6 2 3 1024.5 1024.5 0.0
13/03:00am 9.2 7.5 7.6 90 0.8 WNW 6 6 3 3 1024.5 1024.5 0.0
13/02:30am 9.6 8.7 7.7 88 0.9 WSW 2 4 1 2 1024.9 1024.9 0.0
13/02:00am 10.0 8.9 8.6 91 0.7 WSW 4 6 2 3 1025.1 1025.1 0.0
13/01:30am 8.3 6.8 8.3 100 0.0 WSW 6 9 3 5 1025.4 1025.4 0.0
13/01:00am 4.6 2.6 4.2 97 0.2 WSW 4 4 2 2 1025.4 1025.4 0.0
13/12:30am 4.8 3.5 4.2 96 0.3 CALM 0 0 0 0 1025.3 1025.3 0.0
13/12:00am 5.7 4.6 5.1 96 0.3 CALM 0 0 0 0 1025.2 1025.2 0.0

Other formats

Comma delimited format used in spreadsheet applications
http://www.bom.gov.au/fwo/IDS60801/IDS60801.95816.axf

JavaScript Object Notation format (JSON) in row-major order
http://www.bom.gov.au/fwo/IDS60801/IDS60801.95816.json

Data quality

Most of these data are generated automatically and are frequently updated. Quality checks on data are not normally performed. It is possible for incorrect values to appear. Refer to information at About Latest Weather Observations and please check the disclaimer before using these data.